Nearby METAR Reports

 

YSRI - Richmond (aus-Af, Australia
Distance from station: SW 65km
Updated: 06/03/2021 19:00
Overcast
Overcast
 Wind from ESE
Wind: ESE 22 km/h
Temperature: 21°C
Dew Point: 12°C
Humidity: 57%
Barometer: 1012 hPa
Clouds: Overcast
Visibility: 10 km
Cloud details: Overcast 1646 m
2021/03/06 08:00 YSRI 060800Z AUTO 11012KT 9999 // OVC054 21/12 Q1012
YWLM - Williamtown Arp, Australia
Distance from station: NE 69km
Updated: 06/03/2021 19:00
Partly cloudy
Partly cloudy
 Wind from SSE
Wind: SSE 20 km/h
Temperature: 21°C
Dew Point: 14°C
Humidity: 64%
Barometer: 1012 hPa
Clouds: Partly cloudy
Visibility: 10 km
Cloud details: Partly cloudy 1006 m
Partly cloudy 1463 m
2021/03/06 08:00 YWLM 060800Z AUTO 15011KT 9999 // SCT033 SCT048 21/14 Q1012
 
YSSY - Sydney Intl Airp, Australia
Distance from station: SSW 77km
Updated: 06/03/2021 19:00
Partly cloudy
Partly cloudy
 Wind from SSE
Wind: SSE 24 km/h
Temperature: 21°C
Dew Point: 13°C
Humidity: 60%
Barometer: 1013 hPa
Clouds: Partly cloudy
Visibility: 10 km
Cloud details: Few Clouds 914 m
Partly cloudy 1219 m
2021/03/06 08:00 YSSY 060800Z 16013KT 9999 FEW030 SCT040 21/13 Q1013